Time;durP1;ratioP1;P1;durP2;ratioP2;P2;SDS_P1;SDS_P2;PMS_P1;PMS_P2;Temp;Humidity;BMP_temperature;BMP_pressure;BME280_temperature;BME280_humidity;BME280_pressure;Samples;Min_cycle;Max_cycle;Signal;HPM_P1;HPM_P2
2021/12/03 00:04:56;;;;;;;32.10;13.77;;;;;;;-1.67;85.21;99849.66;8833406;33;20141;-72
2021/12/03 00:09:59;;;;;;;29.47;11.90;;;;;;;-1.77;85.09;99856.19;8833710;33;20246;-72
2021/12/03 00:15:02;;;;;;;23.17;11.03;;;;;;;-1.85;84.64;99851.22;8833118;33;20181;-72
2021/12/03 00:20:11;;;;;;;28.73;12.17;;;;;;;-2.04;85.53;99852.84;8833080;33;20265;-72
2021/12/03 00:25:15;;;;;;;29.20;11.47;;;;;;;-1.97;85.24;99849.06;8833322;33;20238;-72
2021/12/03 00:30:19;;;;;;;27.53;11.60;;;;;;;-1.87;84.24;99853.03;8832435;33;20586;-72
2021/12/03 00:35:25;;;;;;;23.53;8.90;;;;;;;-1.98;85.12;99845.56;8833140;33;20178;-71
2021/12/03 00:40:33;;;;;;;36.00;13.27;;;;;;;-1.90;84.95;99843.50;8837515;33;22160;-71
2021/12/03 00:45:37;;;;;;;28.97;12.60;;;;;;;-1.76;84.49;99842.09;8837901;33;21462;-71
2021/12/03 00:50:41;;;;;;;24.37;12.20;;;;;;;-1.66;84.08;99835.56;8837861;33;20197;-71
2021/12/03 00:55:44;;;;;;;28.23;12.63;;;;;;;-1.63;84.51;99831.03;8837774;33;20968;-72
2021/12/03 01:00:47;;;;;;;32.63;14.80;;;;;;;-1.63;84.67;99815.22;8834973;33;20142;-71
2021/12/03 01:05:53;;;;;;;30.40;13.90;;;;;;;-1.45;84.18;99824.19;8837185;33;20712;-72
2021/12/03 01:10:56;;;;;;;32.17;14.93;;;;;;;-1.34;84.39;99826.38;8837107;33;20186;-72
2021/12/03 01:15:59;;;;;;;24.87;12.23;;;;;;;-1.59;85.01;99829.16;8836971;33;20278;-72
2021/12/03 01:21:05;;;;;;;25.57;12.33;;;;;;;-1.73;86.75;99839.34;8836403;33;20283;-72
2021/12/03 01:26:08;;;;;;;45.27;21.33;;;;;;;-1.36;85.41;99830.84;8810922;33;20182;-72
2021/12/03 01:31:13;;;;;;;45.37;17.30;;;;;;;-1.73;86.43;99849.88;8835990;33;20281;-72
2021/12/03 01:36:18;;;;;;;57.43;23.47;;;;;;;-1.35;85.77;99847.50;8836048;33;20150;-72
2021/12/03 01:41:22;;;;;;;52.57;22.70;;;;;;;-1.48;85.51;99839.22;8836056;33;21618;-72
2021/12/03 01:46:25;;;;;;;43.60;19.90;;;;;;;-1.69;86.77;99843.59;8809714;33;20231;-72
2021/12/03 01:51:29;;;;;;;56.20;24.07;;;;;;;-1.47;86.54;99840.97;8835370;33;20205;-72
2021/12/03 01:56:32;;;;;;;52.27;19.50;;;;;;;-1.45;86.38;99837.34;8835942;33;20178;-72
2021/12/03 02:01:36;;;;;;;57.90;22.23;;;;;;;-1.45;86.68;99833.88;8835498;33;20186;-72
2021/12/03 02:06:44;;;;;;;35.63;15.10;;;;;;;-1.68;86.75;99840.03;8835576;33;20135;-72
2021/12/03 02:11:47;;;;;;;46.80;22.80;;;;;;;-1.52;86.31;99837.66;8836602;33;20190;-72
2021/12/03 02:16:50;;;;;;;35.87;15.87;;;;;;;-1.74;86.80;99859.56;8836182;33;20181;-72
2021/12/03 02:21:55;;;;;;;34.43;15.03;;;;;;;-1.87;86.83;99858.31;8835782;33;21140;-71
2021/12/03 02:26:58;;;;;;;48.57;20.07;;;;;;;-1.77;87.19;99864.94;8837084;33;20228;-72
2021/12/03 02:32:01;;;;;;;42.87;22.17;;;;;;;-1.70;86.53;99868.19;8835064;33;20213;-72
2021/12/03 02:37:06;;;;;;;43.03;17.43;;;;;;;-1.65;87.00;99874.16;8835150;33;20174;-72
2021/12/03 02:42:10;;;;;;;42.37;20.80;;;;;;;-1.68;86.90;99871.63;8834640;33;20975;-72
2021/12/03 02:47:13;;;;;;;43.40;19.70;;;;;;;-1.75;86.77;99867.53;8835345;33;20199;-73
2021/12/03 02:52:17;;;;;;;24.80;10.73;;;;;;;-1.88;86.58;99870.63;8859502;33;20455;-73
2021/12/03 02:57:21;;;;;;;33.17;14.00;;;;;;;-1.87;86.87;99880.22;8845187;33;21390;-73
2021/12/03 03:02:24;;;;;;;27.30;13.63;;;;;;;-1.99;87.48;99872.81;8843552;33;20277;-73
2021/12/03 03:07:29;;;;;;;35.00;16.73;;;;;;;-1.73;86.63;99877.06;8835365;33;20651;-73
2021/12/03 03:12:32;;;;;;;36.80;13.67;;;;;;;-1.84;86.37;99887.16;8834170;33;20170;-72
2021/12/03 03:17:36;;;;;;;42.67;18.33;;;;;;;-1.68;86.40;99875.13;8833942;33;20158;-73
2021/12/03 03:22:42;;;;;;;44.87;19.60;;;;;;;-1.73;87.09;99884.13;8833808;33;20170;-73
2021/12/03 03:27:47;;;;;;;38.63;18.00;;;;;;;-2.02;88.20;99877.34;8833673;33;20147;-73
2021/12/03 03:32:51;;;;;;;26.67;12.43;;;;;;;-2.03;88.44;99859.81;8833438;33;20146;-72
2021/12/03 03:37:56;;;;;;;24.73;9.60;;;;;;;-2.01;88.25;99872.00;8833370;33;20593;-73
2021/12/03 03:43:00;;;;;;;32.63;13.40;;;;;;;-2.10;88.53;99860.03;8833205;33;20277;-73
2021/12/03 03:48:04;;;;;;;46.50;19.53;;;;;;;-1.90;87.98;99853.16;8833545;33;20178;-72
2021/12/03 03:53:09;;;;;;;31.30;13.20;;;;;;;-1.89;88.02;99855.75;8833841;33;20190;-73
2021/12/03 03:58:12;;;;;;;60.13;24.17;;;;;;;-1.75;88.31;99857.84;8832912;33;20146;-73
2021/12/03 04:03:15;;;;;;;59.30;24.13;;;;;;;-1.58;87.28;99864.25;8832819;33;20690;-73
2021/12/03 04:08:19;;;;;;;48.53;20.63;;;;;;;-1.77;88.03;99864.94;8833016;33;20654;-73
2021/12/03 04:13:24;;;;;;;49.70;17.83;;;;;;;-1.70;87.88;99865.56;8837291;33;20896;-72
2021/12/03 04:18:27;;;;;;;65.37;23.77;;;;;;;-1.86;89.27;99868.81;8837946;33;20612;-73
2021/12/03 04:23:32;;;;;;;77.53;28.80;;;;;;;-1.71;88.48;99864.72;8811914;33;20960;-73
2021/12/03 04:28:35;;;;;;;80.73;31.17;;;;;;;-1.77;89.48;99854.41;8838271;33;20687;-73
2021/12/03 04:33:39;;;;;;;40.20;15.50;;;;;;;-1.58;88.46;99861.63;8837755;33;20143;-73
2021/12/03 04:38:43;;;;;;;81.87;27.83;;;;;;;-1.33;87.34;99849.16;8837895;33;20221;-72
2021/12/03 04:43:46;;;;;;;75.30;26.50;;;;;;;-1.38;87.66;99845.00;8837380;33;20666;-73
2021/12/03 04:48:50;;;;;;;67.77;25.20;;;;;;;-1.22;87.36;99823.22;8837096;33;20231;-73
2021/12/03 04:53:54;;;;;;;55.50;21.57;;;;;;;-1.47;88.10;99827.78;8836545;33;20810;-73
2021/12/03 04:58:57;;;;;;;44.53;18.60;;;;;;;-1.34;87.47;99829.03;8811622;33;20253;-72
2021/12/03 05:04:02;;;;;;;57.20;23.63;;;;;;;-1.17;87.10;99831.81;8837961;33;20289;-73
2021/12/03 05:09:07;;;;;;;51.07;21.77;;;;;;;-1.24;87.26;99821.59;8838121;33;20146;-72
2021/12/03 05:14:10;;;;;;;54.73;19.17;;;;;;;-1.09;86.56;99835.91;8837218;33;20177;-72
2021/12/03 05:19:13;;;;;;;53.63;23.00;;;;;;;-1.13;86.87;99826.41;8836172;33;20215;-72
2021/12/03 05:24:18;;;;;;;43.33;18.67;;;;;;;-1.32;87.58;99831.56;8835696;33;20189;-72
2021/12/03 05:29:22;;;;;;;37.63;15.77;;;;;;;-1.28;87.50;99830.53;8835790;33;20666;-72
2021/12/03 05:34:25;;;;;;;46.70;17.37;;;;;;;-1.10;87.12;99835.03;8836884;33;20245;-72
2021/12/03 05:39:29;;;;;;;47.53;22.17;;;;;;;-1.05;86.90;99832.22;8837017;33;20657;-72
2021/12/03 05:44:33;;;;;;;44.60;19.15;;;;;;;-0.92;86.15;99843.97;8837001;33;20189;-72
2021/12/03 05:49:36;;;;;;;40.23;16.37;;;;;;;-1.12;87.15;99862.41;8836714;33;20182;-72
2021/12/03 05:54:40;;;;;;;41.87;18.50;;;;;;;-0.96;86.74;99863.47;8837020;33;21124;-72
2021/12/03 05:59:44;;;;;;;50.93;21.40;;;;;;;-0.73;85.88;99855.44;8836727;33;20896;-73
2021/12/03 06:04:47;;;;;;;51.47;20.23;;;;;;;-0.83;86.58;99861.19;8837230;33;20182;-72
2021/12/03 06:09:51;;;;;;;28.20;13.23;;;;;;;-1.25;87.69;99852.34;8836741;33;20171;-72
2021/12/03 06:14:54;;;;;;;39.10;16.17;;;;;;;-0.92;87.28;99843.13;8837311;33;20454;-72
2021/12/03 06:19:57;;;;;;;53.20;23.33;;;;;;;-0.94;87.60;99845.81;8836797;33;20470;-72
2021/12/03 06:25:04;;;;;;;54.90;19.80;;;;;;;-1.09;88.12;99844.69;8837192;33;20145;-72
2021/12/03 06:30:11;;;;;;;56.33;22.23;;;;;;;-0.97;88.48;99848.56;8837390;33;20200;-73
2021/12/03 06:35:16;;;;;;;54.97;21.63;;;;;;;-0.79;87.47;99839.91;8837762;33;20233;-73
2021/12/03 06:40:24;;;;;;;57.80;22.27;;;;;;;-0.65;86.73;99847.22;8836127;33;20194;-73
2021/12/03 06:45:28;;;;;;;26.77;12.37;;;;;;;-0.79;87.17;99845.16;8836818;33;20328;-72
2021/12/03 06:50:32;;;;;;;60.17;25.17;;;;;;;-0.67;87.21;99843.78;8837029;33;20186;-73
2021/12/03 06:55:43;;;;;;;45.67;20.33;;;;;;;-0.87;87.65;99867.53;8810919;33;20594;-72
2021/12/03 07:00:51;;;;;;;50.97;19.90;;;;;;;-0.76;87.14;99857.38;8810687;33;20836;-72
2021/12/03 07:05:54;;;;;;;34.88;12.00;;;;;;;-0.56;86.38;99840.69;8836790;33;20189;-73
2021/12/03 07:10:58;;;;;;;36.63;14.07;;;;;;;-0.89;87.15;99849.13;8836409;33;20182;-72
2021/12/03 07:16:04;;;;;;;53.85;25.00;;;;;;;-0.60;86.97;99844.38;8805797;33;20420;-72
2021/12/03 07:21:07;;;;;;;42.80;19.23;;;;;;;-0.86;86.90;99890.31;8799024;33;20888;-72
2021/12/03 07:26:12;;;;;;;45.73;17.73;;;;;;;-0.66;86.29;99855.19;8779979;33;20172;-73
2021/12/03 07:31:15;;;;;;;35.93;14.73;;;;;;;-0.60;85.15;99854.94;8775835;33;20189;-73
2021/12/03 07:36:18;;;;;;;43.03;17.88;;;;;;;-0.45;85.46;99842.84;8777440;33;20124;-73
2021/12/03 07:41:23;;;;;;;41.30;16.93;;;;;;;-0.41;85.54;99847.94;8777551;33;20171;-74
2021/12/03 07:46:26;;;;;;;33.07;14.60;;;;;;;-0.46;85.71;99839.34;8761746;33;20945;-73
2021/12/03 07:51:29;;;;;;;32.30;13.27;;;;;;;-0.49;85.69;99839.50;8775860;33;21385;-73
2021/12/03 07:56:33;;;;;;;27.95;10.05;;;;;;;-0.46;84.77;99843.78;8776003;33;20942;-72
2021/12/03 08:01:37;;;;;;;34.07;13.17;;;;;;;-0.36;84.01;99847.72;8749567;33;20175;-73
2021/12/03 08:06:42;;;;;;;29.93;14.90;;;;;;;-0.13;84.11;99841.41;8776559;33;20236;-73
2021/12/03 08:11:46;;;;;;;21.50;9.30;;;;;;;-0.09;83.24;99846.47;8774097;33;20232;-73
2021/12/03 08:16:49;;;;;;;23.03;10.80;;;;;;;0.13;82.52;99842.84;8750444;33;20163;-73
2021/12/03 08:21:52;;;;;;;19.55;10.32;;;;;;;-0.07;83.25;99843.75;8775243;33;20236;-73
2021/12/03 08:26:57;;;;;;;23.20;10.80;;;;;;;0.01;82.83;99846.06;8774788;33;20183;-73
2021/12/03 08:32:02;;;;;;;16.17;7.00;;;;;;;-0.12;82.56;99845.75;8774959;33;20190;-73
2021/12/03 08:37:07;;;;;;;29.40;12.83;;;;;;;0.16;82.14;99837.41;8774523;33;20156;-73
2021/12/03 08:42:12;;;;;;;32.25;13.27;;;;;;;0.31;82.00;99847.28;8774802;33;20183;-73
2021/12/03 08:47:16;;;;;;;30.77;13.57;;;;;;;0.38;81.86;99840.78;8749766;33;20226;-73
2021/12/03 08:52:51;;;;;;;18.70;7.57;;;;;;;0.17;81.84;99842.63;8774736;33;20243;-73
2021/12/03 08:57:56;;;;;;;31.50;12.52;;;;;;;0.41;81.58;99837.09;8776844;33;20691;-73
2021/12/03 09:02:59;;;;;;;29.00;14.27;;;;;;;0.66;80.72;99828.00;8808137;33;20190;-73
2021/12/03 09:08:06;;;;;;;34.38;15.15;;;;;;;0.63;81.05;99828.16;8797566;33;20775;-73
2021/12/03 09:13:15;;;;;;;29.92;12.95;;;;;;;0.56;81.12;99820.53;8782140;33;20159;-73
2021/12/03 09:18:26;;;;;;;32.75;12.82;;;;;;;0.73;80.99;99805.63;8780764;33;20849;-73
2021/12/03 09:24:00;;;;;;;29.13;13.32;;;;;;;0.62;81.61;99819.38;8779036;33;20250;-72
2021/12/03 09:29:07;;;;;;;40.15;18.73;;;;;;;0.64;81.98;99811.38;8778758;33;20186;-73
2021/12/03 09:34:14;;;;;;;29.55;13.38;;;;;;;0.54;82.29;99816.25;8753278;33;20257;-71
2021/12/03 09:39:20;;;;;;;20.92;9.25;;;;;;;0.31;83.07;99806.78;8778374;33;20556;-71
2021/12/03 09:44:26;;;;;;;31.70;13.25;;;;;;;0.63;82.24;99822.88;8778706;33;20240;-71
2021/12/03 09:49:34;;;;;;;34.05;14.60;;;;;;;0.68;82.48;99813.78;8777671;33;20199;-72
2021/12/03 09:54:42;;;;;;;34.05;14.60;;;;;;;0.60;82.92;99811.53;8777108;33;20234;-72
2021/12/03 10:16:28;;;;;;;29.83;11.05;;;;;;;0.71;81.81;99799.56;8752458;33;20183;-71
2021/12/03 10:21:57;;;;;;;38.65;15.55;;;;;;;0.87;81.80;99766.13;8777099;33;20690;-72
2021/12/03 10:32:57;;;;;;;29.23;10.48;;;;;;;0.91;81.48;99756.28;8777374;33;20175;-72
2021/12/03 10:38:25;;;;;;;41.45;16.45;;;;;;;1.20;81.05;99750.31;8751561;33;20274;-72
2021/12/03 10:43:46;;;;;;;36.58;13.90;;;;;;;1.03;81.57;99756.47;8776370;33;20293;-72
2021/12/03 10:48:56;;;;;;;23.95;10.32;;;;;;;0.89;80.81;99761.63;8751681;33;20149;-71
2021/12/03 10:54:05;;;;;;;23.73;9.05;;;;;;;1.08;79.24;99728.94;8776261;33;20182;-71
2021/12/03 13:27:12;;;;;;;5.88;3.42;;;;;;;1.40;74.34;99529.63;8898422;32;20185;-73
2021/12/03 13:59:54;;;;;;;5.82;4.10;;;;;;;1.39;74.06;99482.06;8872285;32;20496;-73
2021/12/03 14:05:28;;;;;;;8.80;4.72;;;;;;;1.58;73.98;99466.81;8897888;32;20184;-73
2021/12/03 14:38:13;;;;;;;7.63;2.38;;;;;;;1.42;70.64;99489.81;8895367;32;20681;-72
2021/12/03 14:48:51;;;;;;;8.85;3.67;;;;;;;1.49;70.46;99439.09;8860602;32;20154;-73
2021/12/03 14:59:29;;;;;;;8.63;3.67;;;;;;;1.36;69.84;99434.59;8895749;32;20851;-73
2021/12/03 15:04:53;;;;;;;15.15;7.10;;;;;;;1.27;70.22;99422.75;8896354;32;20216;-73
2021/12/03 15:10:00;;;;;;;13.40;7.22;;;;;;;1.48;71.17;99434.75;8898807;32;20240;-73
2021/12/03 15:26:15;;;;;;;16.00;8.32;;;;;;;1.40;70.98;99415.81;8855883;32;20148;-72
2021/12/03 15:31:29;;;;;;;15.00;7.68;;;;;;;1.23;72.31;99400.91;8895734;32;20470;-72
2021/12/03 15:36:47;;;;;;;6.78;4.78;;;;;;;1.10;72.36;99420.22;8895144;32;20231;-72
2021/12/03 15:58:10;;;;;;;13.48;5.97;;;;;;;1.32;71.29;99386.31;8904382;32;20236;-72
2021/12/03 16:03:34;;;;;;;4.55;3.38;;;;;;;1.13;72.05;99393.63;8895559;32;20134;-72
2021/12/03 16:08:39;;;;;;;5.40;3.50;;;;;;;1.31;72.60;99387.22;8899488;32;21025;-72
2021/12/03 16:13:51;;;;;;;5.85;3.85;;;;;;;1.32;73.27;99396.00;8874206;32;20311;-72
2021/12/03 16:56:25;;;;;;;3.45;3.03;;;;;;;0.47;80.72;99352.41;8813920;32;20312;-72
2021/12/03 17:01:38;;;;;;;4.80;3.80;;;;;;;0.59;80.83;99328.78;8898421;32;20215;-72
2021/12/03 17:12:29;;;;;;;6.22;3.38;;;;;;;0.54;82.15;99337.91;8898815;32;20185;-72
2021/12/03 17:44:40;;;;;;;5.50;4.00;;;;;;;1.13;77.51;99320.41;8898010;32;20577;-72
2021/12/03 17:49:48;;;;;;;3.72;2.58;;;;;;;0.89;78.49;99317.38;8897087;32;20212;-72
2021/12/03 18:00:35;;;;;;;8.10;3.60;;;;;;;0.96;78.65;99309.94;8654953;33;20145;-72
2021/12/03 18:06:04;;;;;;;7.50;4.78;;;;;;;0.98;79.08;99308.91;8846281;32;20450;-72
2021/12/03 18:48:44;;;;;;;7.43;3.85;;;;;;;0.37;86.74;99255.16;8896861;32;20145;-72
2021/12/03 18:53:57;;;;;;;4.60;3.40;;;;;;;0.24;87.51;99262.06;8895894;32;20191;-73
2021/12/03 18:59:04;;;;;;;12.45;6.03;;;;;;;0.43;88.13;99255.75;8895768;32;20350;-73
2021/12/03 19:04:17;;;;;;;5.78;3.95;;;;;;;0.27;88.79;99255.75;8895753;32;20173;-72
2021/12/03 19:09:24;;;;;;;8.87;5.33;;;;;;;0.29;89.83;99240.69;8893937;32;20325;-73
2021/12/03 19:14:31;;;;;;;8.23;4.15;;;;;;;0.24;90.00;99229.53;8838079;32;20165;-73
2021/12/03 19:19:38;;;;;;;9.05;6.22;;;;;;;0.56;88.94;99220.59;8834546;33;20238;-74
2021/12/03 19:24:42;;;;;;;9.38;5.28;;;;;;;0.52;88.98;99200.59;8832234;33;20853;-73
2021/12/03 19:29:45;;;;;;;7.53;4.57;;;;;;;0.28;90.12;99199.38;8833667;33;21574;-73
2021/12/03 19:34:48;;;;;;;10.00;6.00;;;;;;;0.48;89.05;99208.78;8809508;33;20150;-74
2021/12/03 19:39:53;;;;;;;10.32;4.50;;;;;;;0.41;89.15;99202.13;8834854;33;20911;-74
2021/12/03 19:44:58;;;;;;;7.13;5.28;;;;;;;0.59;88.76;99204.56;8834730;33;20228;-74
2021/12/03 19:50:11;;;;;;;8.00;4.63;;;;;;;0.50;89.03;99202.47;8834849;33;20122;-74
2021/12/03 19:55:18;;;;;;;10.35;5.57;;;;;;;0.53;88.68;99198.78;8807454;33;20174;-74
2021/12/03 20:00:24;;;;;;;8.60;3.80;;;;;;;0.52;87.56;99208.53;8805036;33;20447;-74
2021/12/03 20:05:27;;;;;;;8.63;4.72;;;;;;;0.70;86.75;99193.34;8802294;33;20488;-74
2021/12/03 20:10:36;;;;;;;7.35;4.32;;;;;;;0.84;86.33;99184.59;8803984;33;20842;-74
2021/12/03 20:15:47;;;;;;;7.90;4.32;;;;;;;0.64;86.04;99185.78;8804443;33;20290;-72
2021/12/03 20:20:50;;;;;;;6.03;3.97;;;;;;;0.82;85.62;99195.28;8793277;33;20179;-72
2021/12/03 20:26:12;;;;;;;5.32;4.63;;;;;;;0.75;85.02;99190.44;8774466;33;20191;-74
2021/12/03 20:31:17;;;;;;;6.03;4.28;;;;;;;0.92;85.32;99178.88;8773849;33;20810;-72
2021/12/03 20:36:36;;;;;;;7.18;4.75;;;;;;;1.11;83.92;99183.88;8774168;33;20190;-73
2021/12/03 20:41:44;;;;;;;7.63;4.22;;;;;;;1.12;83.29;99188.22;8749067;33;20188;-72
2021/12/03 20:47:01;;;;;;;9.13;4.38;;;;;;;1.22;81.52;99181.44;8776280;33;20707;-72
2021/12/03 20:52:29;;;;;;;8.10;4.68;;;;;;;1.26;80.54;99175.00;8779553;33;20150;-73
2021/12/03 20:57:55;;;;;;;6.15;3.75;;;;;;;1.39;79.57;99183.88;8780433;33;20772;-73
2021/12/03 21:13:41;;;;;;;7.47;4.80;;;;;;;1.62;78.98;99160.41;8788490;33;20224;-73
2021/12/03 21:18:51;;;;;;;6.63;3.72;;;;;;;1.74;78.13;99159.63;8798356;33;20230;-74
2021/12/03 21:23:54;;;;;;;6.10;4.20;;;;;;;1.70;78.43;99171.34;8800781;33;20128;-74
2021/12/03 21:29:06;;;;;;;5.38;4.65;;;;;;;1.66;78.62;99181.31;8787971;33;20134;-74
2021/12/03 21:39:40;;;;;;;4.32;3.30;;;;;;;1.55;79.69;99175.84;8780010;33;20457;-74
2021/12/03 21:44:44;;;;;;;7.35;4.22;;;;;;;1.27;81.28;99166.97;8805356;33;20690;-73
2021/12/03 21:49:47;;;;;;;8.82;4.97;;;;;;;1.27;83.14;99180.22;8808425;33;20193;-73
2021/12/03 21:54:51;;;;;;;5.65;4.60;;;;;;;1.14;84.51;99178.41;8779682;33;20151;-73
2021/12/03 21:59:55;;;;;;;6.88;4.47;;;;;;;1.15;85.32;99164.22;8806365;33;21874;-73
2021/12/03 22:04:59;;;;;;;6.88;4.53;;;;;;;0.97;86.93;99163.56;8807183;33;20245;-72
2021/12/03 22:10:02;;;;;;;6.32;4.88;;;;;;;1.21;86.10;99163.88;8804844;33;21786;-73
2021/12/03 22:15:08;;;;;;;11.00;5.13;;;;;;;1.06;87.21;99171.78;8804531;33;20187;-73
2021/12/03 22:20:11;;;;;;;7.20;5.22;;;;;;;1.15;87.20;99173.03;8803646;33;20170;-72
2021/12/03 22:25:14;;;;;;;9.27;5.80;;;;;;;1.24;87.14;99163.69;8804957;33;20807;-72
2021/12/03 22:30:19;;;;;;;11.30;7.20;;;;;;;1.24;87.22;99163.69;8806126;33;20568;-73
2021/12/03 22:35:22;;;;;;;9.38;5.03;;;;;;;1.24;87.41;99159.22;8803901;33;20182;-73
2021/12/03 22:40:25;;;;;;;7.45;5.15;;;;;;;1.15;87.81;99149.22;8779698;33;20587;-73
2021/12/03 22:45:36;;;;;;;7.10;6.20;;;;;;;1.13;88.10;99148.47;8776635;33;20152;-73
2021/12/03 22:50:48;;;;;;;8.48;5.75;;;;;;;1.10;88.36;99137.22;8777485;33;20440;-73
2021/12/03 22:55:52;;;;;;;6.38;5.35;;;;;;;0.95;88.87;99139.00;8802353;33;20207;-73
2021/12/03 23:01:01;;;;;;;9.43;5.90;;;;;;;1.08;88.31;99134.69;8790418;33;20252;-73
2021/12/03 23:06:05;;;;;;;9.02;5.63;;;;;;;1.14;88.00;99120.22;8775618;33;21908;-73
2021/12/03 23:11:08;;;;;;;10.07;6.72;;;;;;;1.11;88.55;99115.97;8774592;33;20247;-73
2021/12/03 23:16:12;;;;;;;9.73;6.18;;;;;;;1.08;88.50;99110.88;8773179;33;20956;-73
2021/12/03 23:21:17;;;;;;;8.40;5.82;;;;;;;0.86;90.04;99111.34;8772431;33;20169;-73
2021/12/03 23:26:20;;;;;;;9.50;5.65;;;;;;;0.99;89.02;99100.88;8775008;33;20205;-72
2021/12/03 23:31:25;;;;;;;9.95;4.60;;;;;;;0.97;89.55;99106.25;8774156;33;20824;-73
2021/12/03 23:36:28;;;;;;;6.88;5.03;;;;;;;0.83;90.30;99096.50;8774475;33;20658;-72
2021/12/03 23:41:32;;;;;;;8.27;5.97;;;;;;;0.83;89.94;99093.88;8774006;33;20171;-73
2021/12/03 23:46:36;;;;;;;8.48;5.72;;;;;;;1.10;89.32;99098.41;8774391;33;20201;-72
2021/12/03 23:51:53;;;;;;;7.78;5.47;;;;;;;1.19;89.22;99112.84;8749218;33;20606;-73
2021/12/03 23:56:58;;;;;;;10.27;5.63;;;;;;;1.20;89.52;99090.72;8774658;33;20276;-73
